Time;durP1;ratioP1;P1;durP2;ratioP2;P2;SDS_P1;SDS_P2;PMS_P1;PMS_P2;Temp;Humidity;BMP_temperature;BMP_pressure;BME280_temperature;BME280_humidity;BME280_pressure;Samples;Min_cycle;Max_cycle;Signal;HPM_P1;HPM_P2
2023/08/01 00:00:05;;;;;;;8.50;3.00;;;;;;;16.30;100.00;98487.69;109492;1251;67649;-69
2023/08/01 00:03:17;;;;;;;8.00;3.40;;;;;;;16.28;100.00;98484.13;109569;1251;74985;-69
2023/08/01 00:06:04;;;;;;;7.50;3.30;;;;;;;16.27;100.00;98481.52;109190;1255;57924;-65
2023/08/01 00:08:51;;;;;;;9.00;3.70;;;;;;;16.27;100.00;98471.59;109237;1255;60235;-70
2023/08/01 00:11:38;;;;;;;11.20;3.50;;;;;;;16.25;100.00;98463.45;109072;1256;74005;-69
2023/08/01 00:14:26;;;;;;;8.70;3.20;;;;;;;16.24;100.00;98456.69;109268;1255;67879;-66
2023/08/01 00:17:13;;;;;;;8.60;3.40;;;;;;;16.25;100.00;98451.64;109124;1255;72683;-68
2023/08/01 00:20:04;;;;;;;8.40;3.20;;;;;;;16.27;100.00;98453.51;109189;1256;59791;-67
2023/08/01 00:22:51;;;;;;;9.20;3.70;;;;;;;16.26;100.00;98447.69;109242;1255;60826;-67
2023/08/01 00:25:39;;;;;;;7.60;3.20;;;;;;;16.27;100.00;98452.81;109136;1254;72662;-65
2023/08/01 00:28:32;;;;;;;9.30;3.10;;;;;;;16.28;99.97;98451.55;109305;1256;67566;-67
2023/08/01 00:31:21;;;;;;;9.60;3.10;;;;;;;16.29;99.92;98451.63;109366;1255;73676;-68
2023/08/01 00:34:09;;;;;;;7.50;2.70;;;;;;;16.28;99.91;98451.54;109253;1256;59732;-66
2023/08/01 00:36:58;;;;;;;7.30;2.90;;;;;;;16.29;99.73;98450.39;109289;1253;60365;-68
2023/08/01 00:39:44;;;;;;;8.70;3.40;;;;;;;16.30;99.52;98450.43;109608;1251;73056;-67
2023/08/01 00:42:32;;;;;;;8.70;3.10;;;;;;;16.32;99.24;98447.48;109699;1251;67839;-67
2023/08/01 00:45:19;;;;;;;8.70;3.10;;;;;;;16.33;99.33;98445.05;109646;1250;71470;-67
2023/08/01 00:48:07;;;;;;;8.20;3.30;;;;;;;16.31;99.26;98445.04;109370;1251;60965;-68
2023/08/01 00:50:56;;;;;;;9.30;3.60;;;;;;;16.32;99.01;98441.41;109365;1252;60241;-66
2023/08/01 00:53:42;;;;;;;9.00;3.20;;;;;;;16.35;98.70;98437.27;109520;1251;71036;-67
2023/08/01 00:56:31;;;;;;;7.40;3.00;;;;;;;16.38;98.38;98438.86;109561;1251;68131;-66
2023/08/01 00:59:19;;;;;;;9.80;3.70;;;;;;;16.38;98.40;98435.66;109323;1251;71825;-69
2023/08/01 01:02:06;;;;;;;9.00;3.30;;;;;;;16.38;98.11;98434.59;109665;1251;59308;-67
2023/08/01 01:04:56;;;;;;;11.60;3.10;;;;;;;16.39;98.04;98434.88;109432;1251;60692;-66
2023/08/01 01:07:44;;;;;;;8.70;3.10;;;;;;;16.39;98.04;98434.11;109562;1251;73082;-68
2023/08/01 01:10:31;;;;;;;8.20;3.10;;;;;;;16.38;97.99;98429.05;109595;1252;67642;-67
2023/08/01 01:13:18;;;;;;;10.00;3.40;;;;;;;16.39;98.04;98427.16;109610;1251;72563;-66
2023/08/01 01:16:05;;;;;;;7.30;3.20;;;;;;;16.39;97.84;98422.66;109411;1252;57932;-67
2023/08/01 01:18:52;;;;;;;7.80;2.80;;;;;;;16.40;97.75;98422.55;109629;1252;61263;-66
2023/08/01 01:21:42;;;;;;;9.60;2.90;;;;;;;16.39;97.98;98421.17;109552;1251;71755;-66
2023/08/01 01:24:30;;;;;;;9.30;3.10;;;;;;;16.41;97.75;98415.25;109429;1251;68874;-67
2023/08/01 01:27:18;;;;;;;7.30;2.90;;;;;;;16.42;97.74;98410.23;109468;1251;73751;-66
2023/08/01 01:30:07;;;;;;;8.40;2.80;;;;;;;16.43;97.74;98407.04;109457;1251;58254;-66
2023/08/01 01:32:54;;;;;;;8.30;2.90;;;;;;;16.44;97.80;98401.23;109570;1251;60105;-68
2023/08/01 01:35:40;;;;;;;7.60;2.70;;;;;;;16.41;97.89;98394.55;109068;1256;73963;-67
2023/08/01 01:38:29;;;;;;;8.10;2.70;;;;;;;16.45;97.66;98394.86;109151;1256;66750;-66
2023/08/01 01:41:16;;;;;;;8.50;2.70;;;;;;;16.45;97.83;98391.61;109055;1256;72535;-66
2023/08/01 01:44:02;;;;;;;7.90;3.10;;;;;;;16.45;97.96;98384.42;109236;1256;59360;-66
2023/08/01 01:46:52;;;;;;;7.90;2.70;;;;;;;16.46;97.86;98384.88;109244;1256;61159;-66
2023/08/01 01:49:39;;;;;;;6.40;2.10;;;;;;;16.46;97.85;98385.95;109041;1256;74366;-67
2023/08/01 01:52:27;;;;;;;7.30;2.70;;;;;;;16.45;98.32;98389.13;109074;1256;66559;-64
2023/08/01 01:55:14;;;;;;;6.60;2.50;;;;;;;16.47;98.24;98382.57;109056;1256;72257;-65
2023/08/01 01:58:06;;;;;;;6.80;2.40;;;;;;;16.48;98.12;98375.17;109224;1256;58154;-68
2023/08/01 02:00:53;;;;;;;6.70;2.30;;;;;;;16.47;97.96;98372.69;109016;1256;60433;-68
2023/08/01 02:03:40;;;;;;;7.00;2.30;;;;;;;16.48;98.22;98372.49;109172;1256;74082;-67
2023/08/01 02:06:27;;;;;;;7.10;2.10;;;;;;;16.46;98.54;98374.30;109350;1252;68009;-67
2023/08/01 02:09:15;;;;;;;9.20;2.90;;;;;;;16.46;98.41;98365.38;109348;1251;72935;-68
2023/08/01 02:12:04;;;;;;;7.90;2.80;;;;;;;16.45;98.39;98363.52;109359;1251;59469;-66
2023/08/01 02:14:52;;;;;;;7.20;2.70;;;;;;;16.44;98.35;98363.67;109236;1255;60170;-70
2023/08/01 02:17:39;;;;;;;8.20;2.20;;;;;;;16.43;98.21;98364.66;109394;1255;71737;-67
2023/08/01 02:20:28;;;;;;;6.80;2.30;;;;;;;16.41;98.15;98362.34;109199;1256;68520;-69
2023/08/01 02:23:15;;;;;;;7.50;2.60;;;;;;;16.40;98.21;98359.98;109172;1255;73558;-66
2023/08/01 02:26:03;;;;;;;7.10;2.50;;;;;;;16.38;98.38;98356.37;109196;1256;58269;-65
2023/08/01 02:28:50;;;;;;;8.00;2.60;;;;;;;16.38;98.18;98346.54;109047;1255;61582;-66
2023/08/01 02:31:41;;;;;;;8.00;2.60;;;;;;;16.37;98.05;98344.15;109161;1255;72977;-66
2023/08/01 02:34:29;;;;;;;7.00;2.90;;;;;;;16.37;97.99;98348.97;109119;1256;68906;-66
2023/08/01 02:37:18;;;;;;;7.30;2.60;;;;;;;16.36;98.09;98347.70;109148;1255;73742;-67
2023/08/01 02:40:10;;;;;;;7.80;2.70;;;;;;;16.34;97.95;98345.20;109112;1256;59474;-65
2023/08/01 02:42:57;;;;;;;9.60;3.30;;;;;;;16.33;97.72;98345.08;109067;1256;62130;-66
2023/08/01 02:45:45;;;;;;;8.70;3.00;;;;;;;16.32;97.67;98339.51;109351;1252;73293;-66
2023/08/01 02:48:35;;;;;;;7.40;2.50;;;;;;;16.33;97.60;98337.48;109319;1253;67715;-66
2023/08/01 02:51:23;;;;;;;8.00;2.80;;;;;;;16.33;97.35;98341.20;109536;1251;72634;-67
2023/08/01 02:54:09;;;;;;;8.50;2.80;;;;;;;16.33;97.17;98334.10;109554;1251;60100;-65
2023/08/01 02:56:59;;;;;;;7.90;3.00;;;;;;;16.34;96.84;98327.33;109381;1251;60195;-66
2023/08/01 02:59:46;;;;;;;9.00;3.40;;;;;;;16.34;96.84;98334.30;109548;1252;71652;-70
2023/08/01 03:02:36;;;;;;;8.90;3.10;;;;;;;16.33;96.63;98329.70;109535;1253;67892;-68
2023/08/01 03:05:23;;;;;;;9.40;3.10;;;;;;;16.33;96.30;98325.04;109639;1251;73964;-64
2023/08/01 03:08:12;;;;;;;6.70;2.60;;;;;;;16.35;96.16;98321.02;109583;1251;58157;-66
2023/08/01 03:11:04;;;;;;;7.60;2.90;;;;;;;16.37;95.86;98315.78;109501;1251;58893;-66
2023/08/01 03:13:52;;;;;;;7.40;2.50;;;;;;;16.38;95.67;98315.02;109477;1251;72896;-65
2023/08/01 03:16:39;;;;;;;8.80;2.70;;;;;;;16.38;95.44;98316.39;109540;1253;67713;-67
2023/08/01 03:19:27;;;;;;;9.70;3.00;;;;;;;16.39;95.16;98317.27;109461;1251;73807;-68
2023/08/01 03:22:13;;;;;;;9.00;3.10;;;;;;;16.40;94.93;98315.98;109406;1251;58041;-65
2023/08/01 03:25:07;;;;;;;9.70;3.10;;;;;;;16.42;94.79;98318.11;109608;1251;57872;-67
2023/08/01 03:27:54;;;;;;;9.90;3.00;;;;;;;16.42;94.59;98314.98;109463;1252;71875;-65
2023/08/01 03:30:42;;;;;;;10.50;2.80;;;;;;;16.45;94.39;98314.82;109609;1253;67950;-66
2023/08/01 03:33:29;;;;;;;9.50;2.60;;;;;;;16.44;94.34;98314.20;109404;1252;72558;-69
2023/08/01 03:36:17;;;;;;;8.10;3.10;;;;;;;16.44;94.28;98316.84;109349;1252;59473;-66
2023/08/01 03:39:04;;;;;;;7.50;2.80;;;;;;;16.46;94.02;98313.75;109398;1252;58018;-67
2023/08/01 03:41:51;;;;;;;8.60;3.00;;;;;;;16.48;93.81;98310.98;109556;1252;72995;-69
2023/08/01 03:44:41;;;;;;;7.40;2.90;;;;;;;16.50;93.85;98308.27;109119;1252;68107;-70
2023/08/01 03:47:31;;;;;;;7.80;3.30;;;;;;;16.50;93.64;98306.28;109612;1252;72310;-69
2023/08/01 03:50:21;;;;;;;9.60;3.20;;;;;;;16.51;93.49;98303.08;109352;1252;58301;-69
2023/08/01 03:53:09;;;;;;;9.00;3.00;;;;;;;16.53;93.27;98297.32;109276;1253;59014;-67
2023/08/01 03:55:58;;;;;;;7.80;2.90;;;;;;;16.56;93.16;98294.74;109340;1251;74360;-67
2023/08/01 03:58:45;;;;;;;8.50;2.70;;;;;;;16.59;92.86;98293.93;109443;1253;67753;-65
2023/08/01 04:01:31;;;;;;;9.50;3.20;;;;;;;16.57;92.70;98289.41;109445;1251;71413;-69
2023/08/01 04:04:20;;;;;;;7.50;2.90;;;;;;;16.61;92.59;98284.67;109574;1251;58333;-67
2023/08/01 04:07:06;;;;;;;8.10;2.70;;;;;;;16.62;92.48;98288.44;109124;1255;59726;-68
2023/08/01 04:09:54;;;;;;;8.90;3.30;;;;;;;16.61;92.49;98285.70;109065;1256;71990;-70
2023/08/01 04:12:44;;;;;;;7.50;2.90;;;;;;;16.62;92.50;98290.80;109191;1255;69458;-68
2023/08/01 04:15:31;;;;;;;9.50;4.10;;;;;;;16.63;92.46;98290.27;109306;1255;72324;-69
2023/08/01 04:18:26;;;;;;;8.80;3.10;;;;;;;16.67;92.36;98286.02;109134;1255;59212;-71
2023/08/01 04:21:17;;;;;;;8.00;2.80;;;;;;;16.69;92.28;98285.38;108975;1257;61672;-68
2023/08/01 04:24:09;;;;;;;8.60;2.90;;;;;;;16.71;92.10;98282.77;108956;1257;73101;-68
2023/08/01 04:27:02;;;;;;;10.90;3.00;;;;;;;16.73;92.03;98278.40;108944;1257;67870;-69
2023/08/01 04:29:54;;;;;;;9.10;2.90;;;;;;;16.78;91.87;98272.41;109067;1259;71371;-66
2023/08/01 04:32:40;;;;;;;8.70;2.90;;;;;;;16.82;91.68;98269.00;108970;1258;57961;-67
2023/08/01 04:35:29;;;;;;;8.60;3.30;;;;;;;16.83;91.47;98263.95;109033;1257;58961;-70
2023/08/01 04:38:19;;;;;;;8.10;3.60;;;;;;;16.86;91.38;98261.81;109036;1259;72047;-68
2023/08/01 04:41:11;;;;;;;9.30;2.80;;;;;;;16.87;91.26;98264.02;109026;1258;68987;-68
2023/08/01 04:44:10;;;;;;;8.00;2.90;;;;;;;16.90;91.22;98262.48;109157;1255;73801;-70
2023/08/01 04:47:00;;;;;;;9.20;3.40;;;;;;;16.89;91.20;98259.14;109255;1254;59480;-71
2023/08/01 04:49:48;;;;;;;7.90;2.90;;;;;;;16.88;91.25;98258.86;109381;1254;61225;-69
2023/08/01 04:52:44;;;;;;;7.60;3.10;;;;;;;16.89;91.22;98261.72;109306;1254;74400;-77
2023/08/01 04:55:39;;;;;;;9.90;3.00;;;;;;;16.92;91.11;98261.80;109267;1254;67873;-77
2023/08/01 04:58:39;;;;;;;9.20;3.30;;;;;;;16.94;90.87;98260.86;109406;1252;72925;-77
2023/08/01 05:02:30;;;;;;;11.10;3.50;;;;;;;16.96;90.70;98264.84;108868;1261;58581;-78
2023/08/01 05:05:28;;;;;;;9.60;3.40;;;;;;;17.01;90.66;98262.23;108830;1262;59084;-77
2023/08/01 05:08:14;;;;;;;8.60;2.60;;;;;;;17.07;90.57;98264.52;108677;1265;71580;-77
2023/08/01 05:11:04;;;;;;;9.30;3.20;;;;;;;17.10;90.32;98254.52;108716;1265;67916;-73
2023/08/01 05:13:52;;;;;;;8.00;3.20;;;;;;;17.13;90.37;98258.88;108427;1264;75140;-76
2023/08/01 05:16:40;;;;;;;11.40;3.00;;;;;;;17.16;90.26;98254.48;108618;1264;59431;-72
2023/08/01 05:19:34;;;;;;;8.80;3.10;;;;;;;17.19;90.35;98251.79;108736;1264;58822;-76
2023/08/01 05:26:02;;;;;;;8.90;3.10;;;;;;;17.21;90.64;98248.98;105706;1288;615570;-78
2023/08/01 05:29:23;;;;;;;9.60;3.80;;;;;;;17.19;90.69;98244.00;107690;1267;56562;-80
2023/08/01 05:32:19;;;;;;;10.60;3.40;;;;;;;17.14;90.83;98240.21;107486;1268;60704;-81
2023/08/01 05:35:18;;;;;;;8.90;3.40;;;;;;;17.12;91.29;98240.84;106133;1267;71394;-77
2023/08/01 05:38:29;;;;;;;10.70;3.50;;;;;;;17.12;91.54;98238.02;106605;1265;280795;-76
2023/08/01 05:41:41;;;;;;;8.90;4.70;;;;;;;17.08;92.08;98238.27;106183;1268;73306;-77
2023/08/01 05:44:35;;;;;;;8.70;3.40;;;;;;;17.03;92.45;98241.70;105961;1272;59240;-78
2023/08/01 05:47:45;;;;;;;10.20;3.40;;;;;;;17.03;92.74;98240.79;105288;1273;59288;-73
2023/08/01 05:50:37;;;;;;;8.70;3.00;;;;;;;17.05;93.09;98240.16;105548;1274;70004;-80
2023/08/01 05:54:18;;;;;;;8.20;3.20;;;;;;;17.06;93.36;98242.11;106666;1276;66715;-81
2023/08/01 05:58:10;;;;;;;8.80;3.40;;;;;;;17.13;93.28;98240.42;108445;1257;71677;-79
2023/08/01 06:01:17;;;;;;;10.20;3.60;;;;;;;17.10;93.93;98235.21;107951;1262;59230;-77
2023/08/01 06:04:14;;;;;;;9.90;3.60;;;;;;;17.10;94.44;98236.31;106705;1266;59204;-79
2023/08/01 06:07:07;;;;;;;9.10;3.30;;;;;;;17.13;94.41;98240.05;107055;1268;71811;-78
2023/08/01 06:10:43;;;;;;;10.30;3.70;;;;;;;17.18;95.00;98242.31;104038;1291;616036;-78
2023/08/01 06:13:32;;;;;;;12.20;3.60;;;;;;;17.21;95.21;98244.23;106289;1275;59296;-81
2023/08/01 06:16:19;;;;;;;9.20;3.70;;;;;;;17.16;95.32;98235.70;106615;1267;59382;-81
2023/08/01 06:19:06;;;;;;;10.20;3.60;;;;;;;17.19;95.53;98238.84;106371;1266;70426;-78
2023/08/01 06:21:58;;;;;;;10.40;3.80;;;;;;;17.15;95.83;98228.25;106390;1266;66825;-78
2023/08/01 06:24:48;;;;;;;9.90;3.90;;;;;;;17.13;96.11;98221.36;106759;1254;485652;-78
2023/08/01 06:27:40;;;;;;;10.90;3.70;;;;;;;17.13;96.49;98225.00;107242;1254;59502;-77
2023/08/01 06:30:38;;;;;;;9.20;3.60;;;;;;;17.15;96.60;98221.91;108317;1253;60188;-79
2023/08/01 06:33:38;;;;;;;9.60;3.50;;;;;;;17.22;96.54;98222.39;108459;1253;70734;-79
2023/08/01 06:36:41;;;;;;;8.70;3.30;;;;;;;17.30;96.05;98223.80;108180;1253;67919;-79
2023/08/01 06:40:06;;;;;;;11.00;3.50;;;;;;;17.38;95.87;98219.19;107580;1257;72566;-78
2023/08/01 06:42:57;;;;;;;8.00;3.00;;;;;;;17.38;96.00;98213.41;107243;1257;59176;-79
2023/08/01 06:45:44;;;;;;;10.40;3.80;;;;;;;17.35;96.10;98211.21;106854;1263;60274;-80
2023/08/01 06:48:34;;;;;;;9.00;3.60;;;;;;;17.36;96.34;98198.80;106978;1257;74322;-79
2023/08/01 06:51:22;;;;;;;9.20;3.60;;;;;;;17.42;96.14;98197.06;107010;1256;68089;-81
2023/08/01 06:54:12;;;;;;;9.90;3.40;;;;;;;17.46;96.05;98203.84;106753;1256;71550;-80
2023/08/01 06:57:04;;;;;;;10.20;3.70;;;;;;;17.44;96.34;98202.73;107235;1256;59375;-80
2023/08/01 06:59:54;;;;;;;9.70;3.70;;;;;;;17.40;96.45;98206.83;107541;1256;60644;-79
2023/08/01 07:02:41;;;;;;;9.80;3.50;;;;;;;17.34;96.64;98202.08;107343;1256;71799;-80
2023/08/01 07:05:33;;;;;;;10.60;3.80;;;;;;;17.31;97.08;98203.04;106966;1261;69865;-77
2023/08/01 07:08:25;;;;;;;10.30;3.50;;;;;;;17.31;97.26;98197.66;106805;1256;71360;-79
2023/08/01 07:11:15;;;;;;;9.30;3.80;;;;;;;17.34;97.31;98201.98;107040;1252;59215;-72
